EFTP/TMP METAR and TAF weather

Enter ICAO airport designator
Station Type Date Time Source
EFTP METAR 2018/01/17 06:50 UTC NOAA

EFTP 170650Z 11012KT 9999 -SN FEW022 BKN030 M08/M11 Q0999


Station Type Date Time Source
EFTP Decoded METAR 2018/01/17 06:50 UTC NOAA

Tampere / Pirkkala, Finland (EFTP) 61-25N 023-35E 112M
Jan 17, 2018 - 01:50 AM EST / 2018.01.17 0650 UTC
Wind: from the ESE (110 degrees) at 14 MPH (12 KT):0
Visibility: greater than 7 mile(s):0
Sky conditions: mostly cloudy
Weather: light snow
Temperature: 17 F (-8 C)
Windchill: 3 F (-16 C):1
Dew Point: 12 F (-11 C)
Relative Humidity: 78%
Pressure (altimeter): 29.50 in. Hg (0999 hPa)
ob: EFTP 170650Z 11012KT 9999 -SN FEW022 BKN030 M08/M11 Q0999
cycle: 7

Station Type Date Time Source
EFTP TAF 2018/01/17 06:42 UTC NOAA

TAF EFTP 170522Z 1706/1806 11012KT 9999 BKN017
TEMPO 1706/1712 4000 -SN OVC013 PROB30
TEMPO 1706/1709 11015G25KT 2000 -SN
TEMPO 1716/1806 2500 -SN OVC009


Example: see airport list